Time;durP1;ratioP1;P1;durP2;ratioP2;P2;SDS_P1;SDS_P2;PMS_P1;PMS_P2;Temp;Humidity;BMP_temperature;BMP_pressure;BME280_temperature;BME280_humidity;BME280_pressure;Samples;Min_cycle;Max_cycle;Signal;HPM_P1;HPM_P2
2024/02/13 00:01:40;;;;;;;6.18;3.80;;;8.50;82.60;;;;;;5092261;28;20032;-85
2024/02/13 00:04:09;;;;;;;5.25;3.70;;;8.40;82.50;;;;;;5090345;28;20020;-85
2024/02/13 00:06:35;;;;;;;5.20;3.72;;;8.40;82.50;;;;;;5076162;28;20016;-87
2024/02/13 00:09:00;;;;;;;4.93;3.40;;;8.40;82.50;;;;;;5093798;28;20826;-87
2024/02/13 00:11:27;;;;;;;5.88;4.07;;;8.40;82.50;;;;;;5095444;28;20074;-81
2024/02/13 00:13:52;;;;;;;5.05;3.42;;;8.40;82.50;;;;;;5095095;28;20415;-95
2024/02/13 00:16:20;;;;;;;6.40;3.90;;;8.40;82.50;;;;;;5093474;28;20403;-87
2024/02/13 00:18:50;;;;;;;5.90;3.70;;;8.30;82.50;;;;;;5075945;28;20027;-87
2024/02/13 00:21:16;;;;;;;5.43;3.35;;;8.30;82.50;;;;;;5120772;27;20052;-87
2024/02/13 00:23:42;;;;;;;5.35;3.53;;;8.30;82.50;;;;;;5092928;28;20494;-96
2024/02/13 00:26:09;;;;;;;5.22;3.75;;;8.30;82.50;;;;;;5120658;27;20396;-85
2024/02/13 00:28:38;;;;;;;6.18;3.78;;;8.30;82.50;;;;;;5093363;28;20024;-87
2024/02/13 00:31:07;;;;;;;5.32;3.88;;;8.30;82.50;;;;;;5077046;28;20058;-87
2024/02/13 00:33:35;;;;;;;6.15;4.13;;;8.30;82.60;;;;;;5094028;28;20066;-96
2024/02/13 00:36:03;;;;;;;5.60;4.03;;;8.20;82.50;;;;;;5093209;28;20319;-80
2024/02/13 00:38:30;;;;;;;5.72;3.70;;;8.20;82.50;;;;;;5071466;28;20031;-87
2024/02/13 00:40:56;;;;;;;6.07;4.10;;;8.20;82.50;;;;;;5088246;28;20388;-85
2024/02/13 00:43:22;;;;;;;5.07;3.90;;;8.20;82.50;;;;;;5075008;28;20023;-85
2024/02/13 00:45:50;;;;;;;6.97;4.35;;;8.20;82.60;;;;;;5073526;28;20047;-81
2024/02/13 00:48:17;;;;;;;6.00;4.10;;;8.10;82.50;;;;;;5089206;28;20217;-80
2024/02/13 00:50:46;;;;;;;6.03;4.22;;;8.10;82.50;;;;;;5070675;28;20115;-87
2024/02/13 00:53:15;;;;;;;5.22;3.80;;;8.10;82.50;;;;;;5082435;28;20038;-80
2024/02/13 00:55:42;;;;;;;6.60;4.00;;;8.10;82.50;;;;;;5112371;27;20039;-86
2024/02/13 00:58:09;;;;;;;5.45;4.18;;;8.10;82.60;;;;;;5087727;28;20051;-81
2024/02/13 01:00:39;;;;;;;6.22;4.28;;;8.10;82.60;;;;;;5090800;28;20020;-87
2024/02/13 01:03:05;;;;;;;7.43;4.32;;;8.10;82.60;;;;;;5092430;28;20035;-81
2024/02/13 01:05:31;;;;;;;8.15;5.00;;;8.10;83.20;;;;;;5102978;28;20510;-96
2024/02/13 01:07:58;;;;;;;5.97;4.55;;;8.00;83.20;;;;;;5117551;28;20032;-85
2024/02/13 01:10:24;;;;;;;5.95;4.40;;;8.00;82.50;;;;;;5119680;27;20021;-87
2024/02/13 01:12:52;;;;;;;6.70;4.72;;;8.00;82.60;;;;;;5091455;28;20051;-87
2024/02/13 01:15:22;;;;;;;7.32;5.00;;;8.00;82.60;;;;;;5096003;28;20035;-85
2024/02/13 01:17:50;;;;;;;7.38;4.78;;;8.00;82.60;;;;;;5077930;28;20483;-81
2024/02/13 01:20:18;;;;;;;6.82;5.20;;;8.00;82.60;;;;;;5097721;28;20161;-96
2024/02/13 01:22:44;;;;;;;6.70;5.40;;;7.90;82.50;;;;;;5074790;28;20036;-95
2024/02/13 01:25:13;;;;;;;6.60;5.47;;;7.90;82.50;;;;;;5102557;28;20051;-95
2024/02/13 01:27:40;;;;;;;7.75;5.38;;;7.90;83.20;;;;;;5074957;28;20028;-85
2024/02/13 01:30:09;;;;;;;7.68;5.65;;;7.90;82.50;;;;;;5088188;28;20020;-95
2024/02/13 01:32:40;;;;;;;7.50;5.43;;;7.90;82.50;;;;;;5103991;28;20480;-80
2024/02/13 01:35:10;;;;;;;7.15;5.85;;;7.90;82.60;;;;;;5085844;28;20039;-80
2024/02/13 01:37:36;;;;;;;7.60;6.18;;;7.90;82.60;;;;;;5085067;28;20252;-80
2024/02/13 01:40:05;;;;;;;8.13;6.00;;;7.90;82.60;;;;;;5104341;28;20044;-96
2024/02/13 01:42:40;;;;;;;8.15;6.55;;;7.90;82.60;;;;;;5077287;28;20028;-85
2024/02/13 01:45:10;;;;;;;7.32;6.07;;;7.80;82.50;;;;;;5093043;28;20141;-87
2024/02/13 01:47:41;;;;;;;7.45;6.38;;;7.80;82.60;;;;;;5074115;28;20023;-87
2024/02/13 01:50:14;;;;;;;9.35;6.65;;;7.80;82.60;;;;;;5085272;28;20051;-85
2024/02/13 01:52:43;;;;;;;9.25;7.03;;;7.80;83.20;;;;;;5087412;28;20074;-95
2024/02/13 01:55:13;;;;;;;9.38;6.80;;;7.80;82.60;;;;;;5093141;28;20019;-96
2024/02/13 01:57:40;;;;;;;7.28;6.35;;;7.80;82.60;;;;;;5118384;27;20043;-96
2024/02/13 02:00:13;;;;;;;8.50;7.20;;;7.70;82.50;;;;;;5074065;28;20040;-85
2024/02/13 02:02:49;;;;;;;9.45;8.07;;;7.80;82.60;;;;;;5072880;28;20024;-86
2024/02/13 02:05:15;;;;;;;8.43;7.45;;;7.70;82.60;;;;;;5097548;28;20027;-81
2024/02/13 02:07:44;;;;;;;8.63;7.60;;;7.70;82.60;;;;;;5111775;27;20044;-87
2024/02/13 02:10:13;;;;;;;8.63;7.38;;;7.70;82.60;;;;;;5095719;28;20044;-96
2024/02/13 02:12:40;;;;;;;10.45;8.65;;;7.70;82.60;;;;;;5111505;28;20475;-96
2024/02/13 02:15:09;;;;;;;9.93;8.60;;;7.70;82.60;;;;;;5080562;28;20471;-96
2024/02/13 02:17:35;;;;;;;10.48;8.10;;;7.70;82.60;;;;;;5075214;28;20016;-87
2024/02/13 02:20:02;;;;;;;10.00;8.43;;;7.70;82.60;;;;;;5091197;28;20016;-85
2024/02/13 02:22:28;;;;;;;9.63;8.30;;;7.60;82.50;;;;;;5079266;28;20495;-95
2024/02/13 02:24:54;;;;;;;9.27;8.05;;;7.70;82.60;;;;;;5106715;27;20365;-81
2024/02/13 02:27:21;;;;;;;10.68;8.88;;;7.60;82.50;;;;;;5078056;28;20107;-87
2024/02/13 02:29:47;;;;;;;10.85;8.82;;;7.70;82.60;;;;;;5074537;28;20035;-87
2024/02/13 02:32:16;;;;;;;12.50;9.00;;;7.70;82.50;;;;;;5089242;28;20464;-95
2024/02/13 02:34:43;;;;;;;10.02;8.98;;;7.60;82.50;;;;;;5091587;28;20028;-87
2024/02/13 02:37:09;;;;;;;10.38;9.27;;;7.60;82.50;;;;;;5089289;28;20090;-81
2024/02/13 02:39:34;;;;;;;11.57;9.10;;;7.60;82.60;;;;;;5071189;28;20059;-81
2024/02/13 02:42:01;;;;;;;10.52;9.43;;;7.60;82.50;;;;;;5099330;28;20021;-81
2024/02/13 02:44:26;;;;;;;12.27;9.85;;;7.60;82.50;;;;;;5072839;28;20028;-96
2024/02/13 02:46:52;;;;;;;9.82;8.82;;;7.60;83.20;;;;;;5120538;27;20016;-96
2024/02/13 02:49:19;;;;;;;11.10;9.77;;;7.60;82.60;;;;;;5089902;28;20039;-85
2024/02/13 02:51:46;;;;;;;11.23;9.45;;;7.60;82.60;;;;;;5075293;28;20028;-80
2024/02/13 02:54:13;;;;;;;11.63;9.73;;;7.50;82.50;;;;;;5072006;28;20468;-88
2024/02/13 02:56:41;;;;;;;11.20;9.90;;;7.60;82.60;;;;;;5072784;28;20047;-80
2024/02/13 02:59:08;;;;;;;10.60;9.50;;;7.60;82.60;;;;;;5121691;27;20155;-96
2024/02/13 03:01:36;;;;;;;10.27;9.18;;;7.50;82.50;;;;;;5077900;28;20115;-86
2024/02/13 03:04:03;;;;;;;13.13;9.88;;;7.50;82.60;;;;;;5070280;28;20020;-96
2024/02/13 03:06:29;;;;;;;10.68;9.55;;;7.50;82.50;;;;;;5072475;28;20025;-87
2024/02/13 03:08:55;;;;;;;11.77;9.82;;;7.50;82.50;;;;;;5094001;28;20708;-85
2024/02/13 03:11:21;;;;;;;12.50;10.27;;;7.50;82.50;;;;;;5107160;27;20039;-86
2024/02/13 03:13:47;;;;;;;11.55;9.73;;;7.50;82.50;;;;;;5103461;28;20035;-85
2024/02/13 03:16:15;;;;;;;10.52;9.43;;;7.50;82.50;;;;;;5078402;28;20028;-94
2024/02/13 03:18:42;;;;;;;11.43;9.55;;;7.50;82.50;;;;;;5081193;28;20439;-96
2024/02/13 03:21:09;;;;;;;12.15;9.80;;;7.50;82.50;;;;;;5098583;28;20368;-87
2024/02/13 03:23:38;;;;;;;11.85;10.20;;;7.40;82.60;;;;;;5129446;27;20107;-87
2024/02/13 03:26:03;;;;;;;11.55;9.85;;;7.40;82.50;;;;;;5074467;28;20358;-96
2024/02/13 03:28:29;;;;;;;11.73;10.13;;;7.40;82.50;;;;;;5095992;28;20043;-96
2024/02/13 03:30:57;;;;;;;11.73;10.50;;;7.40;82.60;;;;;;5073223;28;20028;-94
2024/02/13 03:33:23;;;;;;;10.90;9.70;;;7.40;82.60;;;;;;5078458;28;20023;-81
2024/02/13 03:35:50;;;;;;;11.55;10.18;;;7.40;82.50;;;;;;5110987;27;20155;-87
2024/02/13 03:38:15;;;;;;;11.00;9.70;;;7.40;82.50;;;;;;5092581;28;20068;-87
2024/02/13 03:40:41;;;;;;;12.57;9.88;;;7.40;82.50;;;;;;5112368;28;20062;-87
2024/02/13 03:43:07;;;;;;;11.93;10.20;;;7.40;82.50;;;;;;5076253;28;20020;-81
2024/02/13 03:45:33;;;;;;;11.27;10.07;;;7.40;82.50;;;;;;5115891;27;20921;-81
2024/02/13 03:47:59;;;;;;;11.60;10.40;;;7.40;82.50;;;;;;5104494;28;20043;-86
2024/02/13 03:50:26;;;;;;;11.70;10.23;;;7.40;82.60;;;;;;5089871;28;20484;-81
2024/02/13 03:52:53;;;;;;;10.50;9.48;;;7.40;82.60;;;;;;5095889;28;20035;-80
2024/02/13 03:55:19;;;;;;;12.25;9.95;;;7.40;82.60;;;;;;5080673;28;20111;-96
2024/02/13 03:57:45;;;;;;;11.45;10.25;;;7.40;82.60;;;;;;5029813;23;20062;-81
2024/02/13 04:00:11;;;;;;;11.35;10.23;;;7.40;82.60;;;;;;4995173;28;20117;-85
2024/02/13 04:02:40;;;;;;;11.15;10.05;;;7.30;82.50;;;;;;5008348;28;20041;-80
2024/02/13 04:05:07;;;;;;;11.75;10.02;;;7.30;82.50;;;;;;5012721;28;20033;-84
2024/02/13 04:07:33;;;;;;;11.75;10.55;;;7.30;82.60;;;;;;5033291;28;20038;-86
2024/02/13 04:09:59;;;;;;;11.77;10.15;;;7.30;82.60;;;;;;5017770;28;20018;-80
2024/02/13 04:12:25;;;;;;;11.18;10.05;;;7.30;82.60;;;;;;5031741;28;20024;-86
2024/02/13 04:14:51;;;;;;;11.57;10.18;;;7.30;82.50;;;;;;5021051;28;20477;-85
2024/02/13 04:17:18;;;;;;;11.57;10.38;;;7.30;82.60;;;;;;5011113;28;20038;-87
2024/02/13 04:19:44;;;;;;;11.50;9.85;;;7.30;83.20;;;;;;5017213;28;20022;-82
2024/02/13 04:22:10;;;;;;;11.02;9.90;;;7.30;82.60;;;;;;5001375;28;20030;-85
2024/02/13 04:24:35;;;;;;;11.77;10.10;;;7.30;82.60;;;;;;5028616;28;20044;-87
2024/02/13 04:27:01;;;;;;;12.10;10.35;;;7.30;82.60;;;;;;5017269;28;20022;-80
2024/02/13 04:29:27;;;;;;;11.52;9.90;;;7.30;82.60;;;;;;4997451;28;20515;-85
2024/02/13 04:31:53;;;;;;;11.20;9.73;;;7.20;82.50;;;;;;5018161;28;20038;-96
2024/02/13 04:34:18;;;;;;;10.65;9.48;;;7.30;83.20;;;;;;5033396;28;20030;-85
2024/02/13 04:36:44;;;;;;;11.25;10.13;;;7.30;82.60;;;;;;5016389;28;20026;-96
2024/02/13 04:39:11;;;;;;;11.05;9.90;;;7.30;82.60;;;;;;5022733;28;20032;-96
2024/02/13 04:41:39;;;;;;;10.77;9.68;;;7.30;82.60;;;;;;5035413;28;20029;-81
2024/02/13 04:44:07;;;;;;;10.50;9.40;;;7.30;82.60;;;;;;4997747;28;20110;-95
2024/02/13 04:46:33;;;;;;;10.98;9.50;;;7.20;82.50;;;;;;5028900;28;20030;-96
2024/02/13 04:49:03;;;;;;;11.68;10.02;;;7.20;82.60;;;;;;5017255;28;20018;-86
2024/02/13 04:51:29;;;;;;;10.80;9.70;;;7.20;82.50;;;;;;5011875;28;20120;-81
2024/02/13 04:53:55;;;;;;;11.07;9.60;;;7.20;82.50;;;;;;5025239;28;20069;-96
2024/02/13 04:56:22;;;;;;;10.02;9.00;;;7.20;82.50;;;;;;5033664;28;20033;-96
2024/02/13 04:58:47;;;;;;;11.15;9.70;;;7.20;82.60;;;;;;5001569;28;20051;-95
2024/02/13 05:01:14;;;;;;;10.07;8.95;;;7.20;82.60;;;;;;5018636;28;20061;-86
2024/02/13 05:07:19;;;;;;;10.65;9.52;;;7.20;82.50;;;;;;5029080;28;20024;-87
2024/02/13 05:09:19;;;;;;;11.38;9.23;;;7.20;82.50;;;;;;5005188;28;20504;-87
2024/02/13 05:11:46;;;;;;;10.93;9.48;;;7.10;82.50;;;;;;5028335;28;20512;-85
2024/02/13 05:14:11;;;;;;;11.68;9.70;;;7.10;82.60;;;;;;5000715;28;20028;-87
2024/02/13 05:16:41;;;;;;;10.98;9.27;;;7.10;82.50;;;;;;5026734;28;20109;-80
2024/02/13 05:19:07;;;;;;;10.52;9.45;;;7.10;82.50;;;;;;5027550;28;20125;-85
2024/02/13 05:21:35;;;;;;;12.00;9.15;;;7.10;82.50;;;;;;5008100;28;20112;-84
2024/02/13 05:24:07;;;;;;;10.82;9.27;;;7.10;82.50;;;;;;5024310;28;20026;-87
2024/02/13 05:26:34;;;;;;;9.82;8.82;;;7.10;82.50;;;;;;5044425;28;20040;-85
2024/02/13 05:29:00;;;;;;;11.43;9.60;;;7.10;82.50;;;;;;5022573;28;20536;-80
2024/02/13 05:31:26;;;;;;;9.48;8.48;;;7.10;82.50;;;;;;4996256;28;20417;-94
2024/02/13 05:33:52;;;;;;;11.65;8.80;;;7.10;82.50;;;;;;5025135;28;20112;-95
2024/02/13 05:36:18;;;;;;;11.55;9.25;;;7.10;82.50;;;;;;5002284;28;20061;-84
2024/02/13 05:38:44;;;;;;;11.02;9.18;;;7.10;82.60;;;;;;5022391;28;20559;-85
2024/02/13 05:41:10;;;;;;;10.45;9.18;;;7.10;82.60;;;;;;5012124;28;20026;-85
2024/02/13 05:43:38;;;;;;;10.65;9.43;;;7.10;82.60;;;;;;5032573;28;20068;-87
2024/02/13 05:46:04;;;;;;;10.55;9.18;;;7.10;82.50;;;;;;5007781;28;20033;-83
2024/02/13 05:48:30;;;;;;;10.55;9.00;;;7.10;82.50;;;;;;5030476;28;20121;-87
2024/02/13 05:50:55;;;;;;;10.13;8.98;;;7.10;82.50;;;;;;5029100;28;20037;-89
2024/02/13 05:53:21;;;;;;;9.98;8.88;;;7.00;82.50;;;;;;5001311;28;20029;-92
2024/02/13 05:55:48;;;;;;;10.55;8.38;;;7.00;82.50;;;;;;5029037;28;20026;-88
2024/02/13 05:58:14;;;;;;;12.07;9.27;;;7.00;82.40;;;;;;5008188;28;20049;-84
2024/02/13 06:00:42;;;;;;;10.10;8.60;;;7.00;82.50;;;;;;5001443;28;20067;-82
2024/02/13 06:03:08;;;;;;;10.68;9.50;;;7.00;82.50;;;;;;5008215;28;20073;-80
2024/02/13 06:05:35;;;;;;;10.75;8.57;;;7.00;82.50;;;;;;5031720;28;20156;-80
2024/02/13 06:08:01;;;;;;;10.35;9.20;;;7.00;82.50;;;;;;5025055;28;20410;-95
2024/02/13 06:10:27;;;;;;;10.23;8.40;;;7.00;82.50;;;;;;5000665;28;20030;-85
2024/02/13 06:12:56;;;;;;;10.43;8.85;;;7.00;82.50;;;;;;5011133;28;20024;-81
2024/02/13 06:15:22;;;;;;;9.93;8.38;;;7.00;82.50;;;;;;5015614;28;20515;-96
2024/02/13 06:17:48;;;;;;;10.45;8.90;;;7.00;82.50;;;;;;5010485;28;20041;-81
2024/02/13 06:20:14;;;;;;;9.95;8.57;;;7.00;82.50;;;;;;4994009;28;20030;-89
2024/02/13 06:22:40;;;;;;;10.70;8.77;;;7.00;82.50;;;;;;5025214;28;20030;-86
2024/02/13 06:25:08;;;;;;;9.07;8.15;;;7.00;82.50;;;;;;5018441;28;20038;-92
2024/02/13 06:27:35;;;;;;;9.73;8.38;;;7.00;82.50;;;;;;4992075;28;20461;-93
2024/02/13 06:30:02;;;;;;;10.10;8.40;;;7.00;82.50;;;;;;5001882;28;20409;-86
2024/02/13 06:32:27;;;;;;;9.50;8.23;;;7.00;82.50;;;;;;5000625;28;20032;-80
2024/02/13 06:34:54;;;;;;;9.18;8.13;;;7.00;82.60;;;;;;5018362;28;20097;-86
2024/02/13 06:37:21;;;;;;;9.63;8.38;;;7.00;82.60;;;;;;5003785;28;20023;-85
2024/02/13 06:39:50;;;;;;;10.30;8.43;;;7.00;82.60;;;;;;5027341;28;20030;-80
2024/02/13 06:42:16;;;;;;;9.63;8.63;;;7.00;82.60;;;;;;5007760;28;20409;-85
2024/02/13 06:44:43;;;;;;;9.70;8.20;;;6.90;82.50;;;;;;5008249;28;20091;-86
2024/02/13 06:47:10;;;;;;;9.40;7.82;;;6.90;82.50;;;;;;5008427;28;20022;-81
2024/02/13 06:49:37;;;;;;;9.68;8.10;;;6.90;82.50;;;;;;5024850;28;20018;-80
2024/02/13 06:52:06;;;;;;;10.75;8.18;;;6.90;82.50;;;;;;5014336;28;20038;-80
2024/02/13 06:54:32;;;;;;;9.23;8.10;;;6.90;82.50;;;;;;5008163;28;20038;-80
2024/02/13 06:56:58;;;;;;;10.20;8.18;;;6.90;82.50;;;;;;5026271;28;20056;-80
2024/02/13 06:59:29;;;;;;;9.30;8.13;;;6.90;82.50;;;;;;5010583;28;20029;-96
2024/02/13 07:01:59;;;;;;;10.23;7.95;;;6.90;82.50;;;;;;5014582;28;20099;-96
2024/02/13 07:04:25;;;;;;;9.52;7.65;;;6.90;82.50;;;;;;5017537;28;20045;-85
2024/02/13 07:06:55;;;;;;;8.68;7.15;;;6.90;82.50;;;;;;5010090;28;20084;-84
2024/02/13 07:09:24;;;;;;;9.25;7.18;;;6.90;82.50;;;;;;4996720;28;20030;-95
2024/02/13 07:11:50;;;;;;;9.02;7.45;;;6.90;82.50;;;;;;5000460;28;20030;-95
2024/02/13 07:14:19;;;;;;;8.75;7.68;;;6.90;83.10;;;;;;5031688;28;20080;-86
2024/02/13 07:16:44;;;;;;;9.50;7.57;;;6.90;82.50;;;;;;5020101;28;20121;-87
2024/02/13 07:19:10;;;;;;;10.55;7.28;;;6.90;82.50;;;;;;5005327;28;20121;-86
2024/02/13 07:21:36;;;;;;;9.25;7.60;;;6.90;82.50;;;;;;5013531;28;20030;-86
2024/02/13 07:24:02;;;;;;;8.25;7.32;;;6.90;82.50;;;;;;5016562;28;20074;-85
2024/02/13 07:26:28;;;;;;;9.13;7.38;;;6.90;82.50;;;;;;5034268;28;20045;-88
2024/02/13 07:28:53;;;;;;;7.95;7.05;;;6.90;82.50;;;;;;5019764;28;20480;-81
2024/02/13 07:31:26;;;;;;;8.40;6.72;;;6.90;82.50;;;;;;5013800;28;20066;-81
2024/02/13 07:33:51;;;;;;;8.43;6.82;;;6.90;82.50;;;;;;5017654;28;20117;-81
2024/02/13 07:36:17;;;;;;;8.65;7.07;;;6.90;82.50;;;;;;5009635;28;20105;-85
2024/02/13 07:38:43;;;;;;;9.15;7.00;;;6.80;82.40;;;;;;5037899;28;20045;-86
2024/02/13 07:41:13;;;;;;;8.32;6.22;;;6.90;82.50;;;;;;5011061;28;20041;-87
2024/02/13 07:43:38;;;;;;;7.70;6.47;;;6.90;82.50;;;;;;5012952;28;20108;-81
2024/02/13 07:46:09;;;;;;;6.97;6.07;;;6.80;82.40;;;;;;4983860;28;20054;-80
2024/02/13 07:48:35;;;;;;;7.65;6.05;;;6.80;82.40;;;;;;5032214;28;20531;-87
2024/02/13 07:51:01;;;;;;;7.90;5.90;;;6.80;82.40;;;;;;4996312;28;20022;-95
2024/02/13 07:53:27;;;;;;;8.50;6.25;;;6.80;82.40;;;;;;4993404;28;20018;-87
2024/02/13 07:55:53;;;;;;;7.93;6.10;;;6.80;83.00;;;;;;5029318;28;20026;-94
2024/02/13 07:58:19;;;;;;;8.30;6.03;;;6.80;82.40;;;;;;5016277;28;20135;-88
2024/02/13 08:00:46;;;;;;;7.47;6.13;;;6.90;83.10;;;;;;5023409;28;20041;-88
2024/02/13 08:03:11;;;;;;;7.80;6.20;;;6.90;82.50;;;;;;5012242;28;20046;-94
2024/02/13 08:05:39;;;;;;;7.50;6.00;;;6.80;82.40;;;;;;5013121;28;20077;-96
2024/02/13 08:08:08;;;;;;;7.85;5.80;;;6.80;82.40;;;;;;5015855;28;20515;-81
2024/02/13 08:10:35;;;;;;;7.55;5.90;;;6.80;82.40;;;;;;5013540;28;20034;-87
2024/02/13 08:13:01;;;;;;;7.13;5.90;;;6.80;82.40;;;;;;5009506;28;20084;-86
2024/02/13 08:15:27;;;;;;;7.47;5.88;;;6.90;82.50;;;;;;5016545;28;20034;-87
2024/02/13 08:17:53;;;;;;;8.20;5.20;;;6.80;82.40;;;;;;5035343;28;20159;-87
2024/02/13 08:20:18;;;;;;;6.72;5.63;;;6.80;82.40;;;;;;5014735;28;20029;-80
2024/02/13 08:22:44;;;;;;;6.55;5.25;;;6.90;82.40;;;;;;5030215;28;20394;-81
2024/02/13 08:25:10;;;;;;;6.40;5.45;;;6.80;82.40;;;;;;5020693;28;20375;-87
2024/02/13 08:27:37;;;;;;;6.35;5.45;;;6.80;82.40;;;;;;5000565;28;20048;-95
2024/02/13 08:30:09;;;;;;;7.32;5.75;;;6.80;82.40;;;;;;5012640;28;20034;-95
2024/02/13 08:32:41;;;;;;;7.22;5.40;;;6.90;82.40;;;;;;5015889;28;20102;-83
2024/02/13 08:35:08;;;;;;;7.07;5.50;;;6.90;82.40;;;;;;5011378;28;20113;-80
2024/02/13 08:37:35;;;;;;;6.68;4.80;;;6.80;82.40;;;;;;5036384;28;20117;-81
2024/02/13 08:40:01;;;;;;;7.32;5.03;;;6.80;82.40;;;;;;4996268;28;20037;-94
2024/02/13 08:42:27;;;;;;;7.20;4.85;;;6.80;82.40;;;;;;5018101;28;20060;-81
2024/02/13 08:44:54;;;;;;;5.95;5.20;;;6.80;82.40;;;;;;4986037;28;20021;-83
2024/02/13 08:47:21;;;;;;;6.45;4.97;;;6.90;82.40;;;;;;5011991;28;20060;-89
2024/02/13 08:49:49;;;;;;;5.93;4.88;;;6.90;82.40;;;;;;5029726;28;20454;-86
2024/02/13 08:52:15;;;;;;;5.80;4.88;;;6.90;82.40;;;;;;5038812;28;20041;-80
2024/02/13 08:54:41;;;;;;;7.03;5.13;;;6.90;82.40;;;;;;5009089;28;20018;-87
2024/02/13 08:57:07;;;;;;;7.28;5.18;;;6.90;82.40;;;;;;5026366;28;20065;-91
2024/02/13 08:59:33;;;;;;;6.35;4.75;;;6.90;82.40;;;;;;5010335;28;20046;-91
2024/02/13 09:01:59;;;;;;;6.82;5.00;;;6.90;82.40;;;;;;5026195;28;20018;-81
2024/02/13 09:04:25;;;;;;;6.28;4.63;;;6.90;82.30;;;;;;4992662;28;20026;-86
2024/02/13 09:06:51;;;;;;;6.20;4.40;;;7.00;82.40;;;;;;5025535;28;20389;-85
2024/02/13 09:09:17;;;;;;;5.78;4.32;;;6.90;82.30;;;;;;4992580;28;20045;-84
2024/02/13 09:11:44;;;;;;;5.78;4.60;;;7.00;82.40;;;;;;4996012;28;20032;-94
2024/02/13 09:14:11;;;;;;;6.15;4.70;;;7.00;82.40;;;;;;5009592;28;20022;-85
2024/02/13 09:16:37;;;;;;;6.32;4.28;;;7.00;82.40;;;;;;5023948;28;20026;-85
2024/02/13 09:19:03;;;;;;;5.25;4.20;;;7.00;82.40;;;;;;5033475;28;20132;-85
2024/02/13 09:21:29;;;;;;;5.47;4.20;;;7.00;82.30;;;;;;5036923;28;20026;-95
2024/02/13 09:23:55;;;;;;;5.60;4.20;;;7.00;82.30;;;;;;5024759;28;20474;-85
2024/02/13 09:26:23;;;;;;;6.30;4.32;;;7.10;82.30;;;;;;5027590;28;20526;-80
2024/02/13 09:28:49;;;;;;;6.07;4.32;;;7.10;82.30;;;;;;5025886;28;20402;-81
2024/02/13 09:31:16;;;;;;;5.00;3.90;;;7.10;82.20;;;;;;5028121;28;20021;-95
2024/02/13 09:33:42;;;;;;;6.57;4.22;;;7.10;82.20;;;;;;5035479;28;20053;-87
2024/02/13 09:36:08;;;;;;;5.93;4.05;;;7.20;82.30;;;;;;5026018;28;20465;-86
2024/02/13 09:38:35;;;;;;;5.88;4.15;;;7.20;82.30;;;;;;5005150;28;20485;-82
2024/02/13 09:41:04;;;;;;;5.72;4.00;;;7.20;82.30;;;;;;5013900;28;20389;-86
2024/02/13 09:43:31;;;;;;;5.40;4.15;;;7.30;82.30;;;;;;5016730;28;20057;-86
2024/02/13 09:45:57;;;;;;;6.03;4.10;;;7.30;82.30;;;;;;4997498;28;20022;-81
2024/02/13 09:48:28;;;;;;;7.07;4.28;;;7.30;82.30;;;;;;5034710;28;20738;-96
2024/02/13 09:50:58;;;;;;;8.07;4.25;;;7.30;82.30;;;;;;5029653;28;20084;-82
2024/02/13 09:53:28;;;;;;;6.53;4.30;;;7.30;82.30;;;;;;5027879;28;20021;-87
2024/02/13 09:55:58;;;;;;;6.32;4.22;;;7.40;82.30;;;;;;5020796;28;20395;-86
2024/02/13 09:58:24;;;;;;;5.40;3.80;;;7.40;82.30;;;;;;5022558;28;20034;-87
2024/02/13 10:00:51;;;;;;;4.93;3.58;;;7.40;82.30;;;;;;5032683;28;20125;-87
2024/02/13 10:03:17;;;;;;;5.43;3.78;;;7.50;82.30;;;;;;4994049;28;20443;-94
2024/02/13 10:05:43;;;;;;;6.50;3.75;;;7.50;82.20;;;;;;5030696;28;20038;-86
2024/02/13 10:08:11;;;;;;;5.30;3.92;;;7.50;82.30;;;;;;5012737;28;20026;-87
2024/02/13 10:10:38;;;;;;;6.25;4.00;;;7.60;82.30;;;;;;5011813;28;20022;-87
2024/02/13 10:13:04;;;;;;;5.88;3.85;;;7.60;82.30;;;;;;4988998;28;20037;-95
2024/02/13 10:15:40;;;;;;;6.47;4.13;;;7.60;82.30;;;;;;5021158;28;20497;-95
2024/02/13 10:18:08;;;;;;;4.38;3.60;;;7.70;82.40;;;;;;5027315;28;20109;-82
2024/02/13 10:20:35;;;;;;;5.03;3.60;;;7.70;82.30;;;;;;5000677;28;20094;-82
2024/02/13 10:23:01;;;;;;;5.15;3.63;;;7.70;82.30;;;;;;5031109;28;20037;-82
2024/02/13 10:25:33;;;;;;;5.50;3.22;;;7.70;82.30;;;;;;5024535;28;20029;-82
2024/02/13 10:28:02;;;;;;;5.13;3.38;;;7.80;82.40;;;;;;5035858;28;20469;-87
2024/02/13 10:30:31;;;;;;;4.80;3.35;;;7.80;82.40;;;;;;5034422;28;20091;-88
2024/02/13 10:33:01;;;;;;;6.22;3.47;;;7.80;82.40;;;;;;5033970;28;20064;-94
2024/02/13 10:35:33;;;;;;;5.82;3.95;;;7.90;82.50;;;;;;5005506;28;20030;-86
2024/02/13 10:38:00;;;;;;;6.75;3.50;;;7.90;82.40;;;;;;5004333;28;20022;-88
2024/02/13 10:40:27;;;;;;;5.28;3.40;;;7.90;82.40;;;;;;4994584;28;20446;-81
2024/02/13 10:42:59;;;;;;;5.32;3.10;;;8.00;82.50;;;;;;5007939;28;20022;-95
2024/02/13 10:45:33;;;;;;;5.50;3.70;;;8.00;82.50;;;;;;5003263;28;20038;-93
2024/02/13 10:48:40;;;;;;;6.00;3.47;;;8.00;82.40;;;;;;4990089;28;20026;-96
2024/02/13 10:51:08;;;;;;;5.75;3.55;;;8.10;82.50;;;;;;4992186;28;20073;-96
2024/02/13 10:53:35;;;;;;;4.90;3.30;;;8.10;82.50;;;;;;4995441;28;20096;-82
2024/02/13 10:56:04;;;;;;;5.32;3.80;;;8.10;82.50;;;;;;4973712;28;20510;-82
2024/02/13 10:58:31;;;;;;;5.57;3.30;;;8.10;82.50;;;;;;4990096;28;20041;-86
2024/02/13 11:01:17;;;;;;;4.45;3.13;;;8.20;82.60;;;;;;4987822;28;20046;-95
2024/02/13 11:03:43;;;;;;;4.47;3.13;;;8.20;83.10;;;;;;4984542;28;20048;-95
2024/02/13 11:06:11;;;;;;;5.75;3.40;;;8.20;82.50;;;;;;4980898;28;20034;-82
2024/02/13 11:08:38;;;;;;;5.68;3.40;;;8.30;82.60;;;;;;4999607;28;20026;-96
2024/02/13 11:11:14;;;;;;;5.68;3.60;;;8.30;82.60;;;;;;4977842;28;20046;-83
2024/02/13 11:13:40;;;;;;;4.88;3.28;;;8.40;82.60;;;;;;4985079;28;20030;-86
2024/02/13 11:16:09;;;;;;;4.88;3.28;;;8.40;82.60;;;;;;4978517;28;20037;-96
2024/02/13 11:18:43;;;;;;;5.45;3.45;;;8.40;82.60;;;;;;4985465;28;20057;-95
2024/02/13 11:21:09;;;;;;;4.37;3.30;;;8.50;82.70;;;;;;4971851;28;20046;-86
2024/02/13 11:23:35;;;;;;;7.53;3.00;;;8.50;82.70;;;;;;4993405;28;20038;-94
2024/02/13 11:26:01;;;;;;;5.30;3.10;;;8.50;82.70;;;;;;5001341;28;20190;-82
2024/02/13 11:28:36;;;;;;;4.70;3.45;;;8.60;82.80;;;;;;4960041;28;20026;-82
2024/02/13 11:31:12;;;;;;;5.50;3.47;;;8.60;82.80;;;;;;4998532;28;20026;-87
2024/02/13 11:33:38;;;;;;;5.32;3.30;;;8.60;82.80;;;;;;5005140;28;20029;-95
2024/02/13 11:36:07;;;;;;;5.53;3.28;;;8.70;82.80;;;;;;5023806;28;20091;-86
2024/02/13 11:38:32;;;;;;;4.95;3.50;;;8.70;82.80;;;;;;5022215;28;20037;-87
2024/02/13 11:40:59;;;;;;;5.10;3.25;;;8.70;82.80;;;;;;5011488;28;20027;-86
2024/02/13 11:43:26;;;;;;;6.43;3.42;;;8.80;82.90;;;;;;5023692;28;20025;-87
2024/02/13 11:46:07;;;;;;;4.45;3.38;;;8.80;82.90;;;;;;5015406;28;20417;-87
2024/02/13 11:48:36;;;;;;;4.75;3.20;;;8.90;83.00;;;;;;5000471;28;20036;-87
2024/02/13 11:51:02;;;;;;;5.30;3.25;;;8.90;82.90;;;;;;4998646;28;20359;-82
2024/02/13 11:53:30;;;;;;;6.13;3.28;;;8.90;82.90;;;;;;5006985;28;20082;-87
2024/02/13 11:55:58;;;;;;;4.88;3.35;;;9.00;83.00;;;;;;5024858;28;20021;-86
2024/02/13 11:58:26;;;;;;;6.25;3.42;;;9.00;83.00;;;;;;5028242;28;20030;-87
2024/02/13 12:01:05;;;;;;;5.57;3.35;;;9.10;83.00;;;;;;5001384;28;20123;-86
2024/02/13 12:03:32;;;;;;;4.63;3.28;;;9.10;83.00;;;;;;5025822;28;20490;-82
2024/02/13 12:06:00;;;;;;;5.75;3.50;;;9.20;83.00;;;;;;4994167;28;20477;-83
2024/02/13 12:08:30;;;;;;;6.38;3.40;;;9.20;83.00;;;;;;5003025;28;20061;-82
2024/02/13 12:11:06;;;;;;;5.45;3.25;;;9.20;83.00;;;;;;5022938;28;20026;-96
2024/02/13 12:13:32;;;;;;;5.38;3.45;;;9.30;83.00;;;;;;5044156;28;20030;-86
2024/02/13 12:15:58;;;;;;;6.72;3.80;;;9.30;83.00;;;;;;5011467;28;20022;-88
2024/02/13 12:18:29;;;;;;;5.72;3.55;;;9.40;83.10;;;;;;5037770;28;20034;-84
2024/02/13 12:20:57;;;;;;;5.55;3.15;;;9.40;83.10;;;;;;5014177;28;20030;-86
2024/02/13 12:23:23;;;;;;;4.93;3.30;;;9.50;83.10;;;;;;4999422;28;20022;-87
2024/02/13 12:26:00;;;;;;;5.30;3.20;;;9.50;83.10;;;;;;4999698;28;20061;-82
2024/02/13 12:28:26;;;;;;;5.85;3.17;;;9.60;83.20;;;;;;4998339;28;20076;-95
2024/02/13 12:30:58;;;;;;;5.40;2.92;;;9.60;83.10;;;;;;5018486;28;20040;-87
2024/02/13 12:33:24;;;;;;;4.45;3.05;;;9.70;83.20;;;;;;5031766;28;20026;-96
2024/02/13 12:36:18;;;;;;;5.18;3.42;;;9.70;83.20;;;;;;5035637;28;20382;-88
2024/02/13 12:38:47;;;;;;;4.63;2.83;;;9.80;83.20;;;;;;5006203;28;20037;-83
2024/02/13 12:41:13;;;;;;;4.97;3.05;;;9.80;83.10;;;;;;5017607;28;20464;-95
2024/02/13 12:43:41;;;;;;;6.78;3.20;;;9.80;83.20;;;;;;4993882;28;20112;-96
2024/02/13 12:46:13;;;;;;;4.90;3.00;;;9.90;83.20;;;;;;5036338;28;20028;-88
2024/02/13 12:48:42;;;;;;;4.80;3.40;;;10.00;83.30;;;;;;5033276;28;20025;-89
2024/02/13 12:51:11;;;;;;;4.35;2.78;;;10.00;83.20;;;;;;4992525;28;20136;-87
2024/02/13 12:53:39;;;;;;;5.95;3.55;;;10.10;83.30;;;;;;5025980;28;20097;-95
2024/02/13 12:56:08;;;;;;;3.65;2.53;;;10.10;83.30;;;;;;5036337;28;20018;-87
2024/02/13 12:58:34;;;;;;;5.35;3.17;;;10.20;83.30;;;;;;4999639;28;20026;-95